Time;durP1;ratioP1;P1;durP2;ratioP2;P2;SDS_P1;SDS_P2;PMS_P1;PMS_P2;Temp;Humidity;BMP_temperature;BMP_pressure;BME280_temperature;BME280_humidity;BME280_pressure;Samples;Min_cycle;Max_cycle;Signal;HPM_P1;HPM_P2
2023/12/23 00:00:36;;;;;;;1.53;0.87;;;3.30;99.90;;;;;;4218101;28;20950;-80
2023/12/23 00:02:38;;;;;;;2.53;0.83;;;3.90;99.90;;;;;;4222483;28;20457;-80
2023/12/23 00:04:39;;;;;;;2.83;0.90;;;3.10;99.90;;;;;;4216396;28;20224;-80
2023/12/23 00:06:41;;;;;;;4.33;1.00;;;3.50;99.90;;;;;;4220964;28;20442;-81
2023/12/23 00:08:43;;;;;;;7.37;1.03;;;3.10;99.90;;;;;;4215777;28;20200;-81
2023/12/23 00:10:45;;;;;;;4.37;0.73;;;3.00;99.90;;;;;;4205829;28;21222;-80
2023/12/23 00:12:48;;;;;;;6.07;0.70;;;3.00;99.90;;;;;;4220419;28;20981;-79
2023/12/23 00:14:50;;;;;;;3.63;0.63;;;2.90;99.90;;;;;;4222848;28;20465;-80
2023/12/23 00:16:51;;;;;;;4.17;0.70;;;2.90;99.90;;;;;;4220939;28;21124;-79
2023/12/23 00:18:53;;;;;;;3.00;0.60;;;3.00;99.90;;;;;;4225923;28;20514;-79
2023/12/23 00:20:54;;;;;;;1.80;0.57;;;2.90;99.90;;;;;;4222806;28;20280;-79
2023/12/23 00:22:56;;;;;;;2.10;0.37;;;2.90;99.90;;;;;;4220298;28;20461;-79
2023/12/23 00:24:58;;;;;;;3.27;0.63;;;3.50;99.90;;;;;;4227624;28;20218;-79
2023/12/23 00:27:00;;;;;;;7.83;1.10;;;2.90;99.90;;;;;;4226231;28;20822;-81
2023/12/23 00:29:03;;;;;;;2.23;0.60;;;2.80;99.90;;;;;;4230619;28;20447;-80
2023/12/23 00:31:05;;;;;;;11.03;1.23;;;2.80;99.90;;;;;;4227222;28;20442;-79
2023/12/23 00:33:08;;;;;;;3.83;0.60;;;2.80;99.90;;;;;;4231501;28;20462;-79
2023/12/23 00:35:10;;;;;;;6.40;1.30;;;2.80;99.90;;;;;;4232398;28;20455;-79
2023/12/23 00:37:12;;;;;;;8.47;0.80;;;2.70;99.90;;;;;;4233237;28;20473;-80
2023/12/23 00:39:15;;;;;;;7.13;1.03;;;2.80;99.90;;;;;;4221040;28;20443;-81
2023/12/23 00:41:16;;;;;;;6.13;0.70;;;2.90;99.90;;;;;;4227605;28;20447;-80
2023/12/23 00:43:18;;;;;;;4.80;0.60;;;2.90;99.90;;;;;;4216850;28;20481;-79
2023/12/23 00:45:22;;;;;;;3.57;0.50;;;2.90;99.90;;;;;;4213797;28;20471;-80
2023/12/23 00:47:24;;;;;;;6.63;0.60;;;2.90;99.90;;;;;;4214180;28;20451;-80
2023/12/23 00:49:26;;;;;;;5.57;0.60;;;2.90;99.90;;;;;;4219951;28;20473;-80
2023/12/23 00:51:31;;;;;;;4.30;0.70;;;3.00;99.90;;;;;;4215908;28;21049;-80
2023/12/23 00:53:32;;;;;;;2.40;0.60;;;2.80;99.90;;;;;;4214641;28;20439;-81
2023/12/23 00:55:34;;;;;;;4.20;0.83;;;2.70;99.90;;;;;;4214060;28;20465;-81
2023/12/23 00:57:36;;;;;;;2.10;0.50;;;2.90;99.90;;;;;;4214210;28;20262;-79
2023/12/23 00:59:39;;;;;;;4.50;0.70;;;2.40;99.90;;;;;;4219261;28;20450;-79
2023/12/23 01:01:44;;;;;;;8.57;0.70;;;2.20;99.90;;;;;;4215757;28;20459;-79
2023/12/23 01:03:46;;;;;;;3.53;0.53;;;2.10;99.90;;;;;;4214003;28;20443;-79
2023/12/23 01:05:48;;;;;;;4.00;0.80;;;2.30;99.90;;;;;;4218184;28;20483;-79
2023/12/23 01:07:49;;;;;;;6.07;1.10;;;2.40;99.90;;;;;;4216649;28;20458;-79
2023/12/23 01:09:51;;;;;;;3.40;0.57;;;2.00;99.90;;;;;;4209859;28;20520;-79
2023/12/23 01:11:53;;;;;;;1.97;0.40;;;1.70;99.90;;;;;;4213668;28;20229;-80
2023/12/23 01:13:55;;;;;;;5.70;0.70;;;1.70;99.90;;;;;;4217658;28;20455;-78
2023/12/23 01:15:57;;;;;;;6.93;0.60;;;1.70;99.90;;;;;;4215498;28;20442;-79
2023/12/23 01:18:00;;;;;;;7.53;1.30;;;1.70;99.90;;;;;;4216956;28;20962;-79
2023/12/23 01:20:02;;;;;;;9.57;1.00;;;1.90;99.90;;;;;;4221668;28;20504;-79
2023/12/23 01:22:05;;;;;;;8.73;0.77;;;1.70;99.90;;;;;;4219238;28;20470;-78
2023/12/23 01:24:07;;;;;;;3.13;0.67;;;1.70;99.90;;;;;;4221867;28;20497;-79
2023/12/23 01:26:08;;;;;;;2.20;0.70;;;1.50;99.90;;;;;;4212829;28;20864;-79
2023/12/23 01:28:10;;;;;;;7.00;0.93;;;1.80;99.90;;;;;;4211741;28;20552;-79
2023/12/23 01:30:15;;;;;;;2.83;0.50;;;1.40;99.90;;;;;;4197814;28;20455;-79
2023/12/23 01:32:17;;;;;;;2.73;0.80;;;1.50;99.90;;;;;;4211798;28;20467;-79
2023/12/23 01:34:21;;;;;;;4.20;0.83;;;1.50;99.90;;;;;;4196321;28;20470;-79
2023/12/23 01:36:22;;;;;;;6.83;0.90;;;1.50;99.90;;;;;;4221155;28;20436;-80
2023/12/23 01:38:24;;;;;;;9.93;0.90;;;1.50;99.90;;;;;;4213273;28;20439;-79
2023/12/23 01:40:26;;;;;;;7.30;1.03;;;1.50;99.90;;;;;;4214650;28;20850;-81
2023/12/23 01:42:27;;;;;;;7.20;0.80;;;2.40;99.90;;;;;;4219448;28;20466;-82
2023/12/23 01:44:29;;;;;;;5.90;0.90;;;1.60;99.90;;;;;;4214682;28;20942;-80
2023/12/23 01:46:32;;;;;;;3.27;0.87;;;1.70;99.90;;;;;;4196451;28;20214;-79
2023/12/23 01:48:37;;;;;;;2.53;0.90;;;1.70;99.90;;;;;;4215373;28;20446;-79
2023/12/23 01:50:41;;;;;;;6.30;1.20;;;1.80;99.90;;;;;;4213522;28;20447;-78
2023/12/23 01:52:44;;;;;;;6.57;0.97;;;1.80;99.90;;;;;;4212548;28;20463;-80
2023/12/23 01:54:45;;;;;;;8.97;1.00;;;1.90;99.90;;;;;;4212756;28;20491;-79
2023/12/23 01:56:48;;;;;;;3.27;0.87;;;1.80;99.90;;;;;;4217012;28;20437;-79
2023/12/23 01:58:50;;;;;;;2.97;0.80;;;1.80;99.90;;;;;;4217658;28;20857;-78
2023/12/23 02:00:51;;;;;;;8.73;1.37;;;1.80;99.90;;;;;;4219568;28;20470;-79
2023/12/23 02:02:54;;;;;;;4.37;0.87;;;1.70;99.90;;;;;;4216521;28;20514;-79
2023/12/23 02:04:55;;;;;;;10.87;0.83;;;1.70;99.90;;;;;;4214624;28;20236;-80
2023/12/23 02:06:59;;;;;;;2.67;0.70;;;1.60;99.90;;;;;;4212738;28;20452;-78
2023/12/23 02:09:02;;;;;;;8.43;0.93;;;1.60;99.90;;;;;;4213804;28;20993;-78
2023/12/23 02:11:06;;;;;;;7.33;1.03;;;1.50;99.90;;;;;;4217518;28;20545;-79
2023/12/23 02:13:15;;;;;;;4.67;0.80;;;1.40;99.90;;;;;;4218175;28;20572;-79
2023/12/23 02:15:17;;;;;;;5.07;0.97;;;1.40;99.90;;;;;;4208666;28;20446;-80
2023/12/23 02:17:19;;;;;;;9.80;1.00;;;1.30;99.90;;;;;;4199799;28;21024;-80
2023/12/23 02:19:24;;;;;;;6.03;1.00;;;1.30;99.90;;;;;;4221633;28;20446;-79
2023/12/23 02:21:27;;;;;;;7.50;0.93;;;1.30;99.90;;;;;;4197379;28;20873;-78
2023/12/23 02:23:29;;;;;;;4.67;0.67;;;1.30;99.90;;;;;;4213924;28;20443;-80
2023/12/23 02:25:30;;;;;;;10.17;1.00;;;1.30;99.90;;;;;;4209467;28;20478;-80
2023/12/23 02:27:40;;;;;;;5.77;1.30;;;1.30;99.90;;;;;;4211053;28;20447;-79
2023/12/23 02:29:43;;;;;;;4.70;1.00;;;1.60;99.90;;;;;;4209834;28;20447;-78
2023/12/23 02:31:46;;;;;;;7.07;1.10;;;1.30;99.90;;;;;;4215459;28;20455;-80
2023/12/23 02:33:48;;;;;;;5.13;1.10;;;1.30;99.90;;;;;;4212883;28;20443;-79
2023/12/23 02:35:52;;;;;;;5.77;1.20;;;1.30;99.90;;;;;;4211686;28;20455;-78
2023/12/23 02:37:56;;;;;;;4.93;1.10;;;1.30;99.90;;;;;;4213423;28;20439;-78
2023/12/23 02:39:59;;;;;;;3.10;0.80;;;1.30;99.90;;;;;;4214402;28;20450;-79
2023/12/23 02:42:01;;;;;;;6.47;1.30;;;1.30;99.90;;;;;;4208204;28;20517;-78
2023/12/23 02:44:03;;;;;;;4.97;1.00;;;1.30;99.90;;;;;;4192867;28;20441;-78
2023/12/23 02:46:05;;;;;;;5.67;1.10;;;1.30;99.90;;;;;;4214994;28;20523;-78
2023/12/23 02:48:06;;;;;;;5.70;1.10;;;1.40;99.90;;;;;;4214373;28;20987;-79
2023/12/23 02:50:09;;;;;;;5.27;1.10;;;1.40;99.90;;;;;;4218578;28;20450;-79
2023/12/23 02:52:11;;;;;;;5.90;2.00;;;1.50;99.90;;;;;;4215758;28;21139;-79
2023/12/23 02:54:14;;;;;;;8.87;0.87;;;1.60;99.90;;;;;;4214478;28;20435;-79
2023/12/23 02:56:16;;;;;;;7.17;1.20;;;1.60;99.90;;;;;;4209036;28;20512;-78
2023/12/23 02:58:17;;;;;;;5.67;0.80;;;1.70;99.90;;;;;;4214520;28;20459;-78
2023/12/23 03:00:19;;;;;;;8.47;0.80;;;1.60;99.90;;;;;;4211210;28;20458;-79
2023/12/23 03:02:21;;;;;;;7.63;0.90;;;1.60;99.90;;;;;;4211670;28;20233;-78
2023/12/23 03:04:22;;;;;;;7.43;0.80;;;1.60;99.90;;;;;;4214545;28;20447;-78
2023/12/23 03:06:24;;;;;;;8.13;1.00;;;1.60;99.90;;;;;;4215087;28;20540;-79
2023/12/23 03:08:26;;;;;;;4.63;0.80;;;1.60;99.90;;;;;;4212329;28;20657;-79
2023/12/23 03:10:28;;;;;;;8.10;0.80;;;1.60;99.90;;;;;;4216562;28;20508;-79
2023/12/23 03:12:30;;;;;;;4.27;1.17;;;1.70;99.90;;;;;;4213840;28;20505;-79
2023/12/23 03:14:32;;;;;;;9.07;0.90;;;1.60;99.90;;;;;;4215187;28;20501;-79
2023/12/23 03:16:35;;;;;;;7.50;0.90;;;1.50;99.90;;;;;;4212932;28;20447;-79
2023/12/23 03:18:37;;;;;;;5.60;1.27;;;1.60;99.90;;;;;;4214437;28;20534;-79
2023/12/23 03:20:39;;;;;;;3.30;0.70;;;1.20;99.90;;;;;;4217741;28;20495;-80
2023/12/23 03:22:41;;;;;;;6.60;0.90;;;1.60;99.90;;;;;;4224216;28;20511;-80
2023/12/23 03:24:43;;;;;;;7.47;0.70;;;1.60;99.90;;;;;;4217353;28;20442;-80
2023/12/23 03:26:46;;;;;;;7.67;1.30;;;1.60;99.90;;;;;;4218540;28;20834;-81
2023/12/23 03:28:48;;;;;;;5.83;0.97;;;1.60;99.90;;;;;;4218775;28;20506;-79
2023/12/23 03:30:50;;;;;;;7.10;0.90;;;1.60;99.90;;;;;;4216281;28;20443;-79
2023/12/23 03:32:52;;;;;;;5.27;1.00;;;1.60;99.90;;;;;;4217242;28;20461;-79
2023/12/23 03:34:54;;;;;;;7.13;1.23;;;1.50;99.90;;;;;;4223834;28;20438;-79
2023/12/23 03:36:56;;;;;;;8.10;1.17;;;1.50;99.90;;;;;;4219314;28;21083;-79
2023/12/23 03:38:57;;;;;;;5.50;0.90;;;1.50;99.90;;;;;;4218278;28;20482;-79
2023/12/23 03:40:59;;;;;;;8.17;1.20;;;1.50;99.90;;;;;;4217203;28;20485;-79
2023/12/23 03:43:02;;;;;;;10.57;1.03;;;1.50;99.90;;;;;;4213080;28;20478;-79
2023/12/23 03:45:04;;;;;;;7.00;1.00;;;2.50;99.90;;;;;;4215040;28;20451;-79
2023/12/23 03:47:07;;;;;;;6.77;0.90;;;1.50;99.90;;;;;;4215279;28;20957;-80
2023/12/23 03:49:09;;;;;;;7.83;0.90;;;1.50;99.90;;;;;;4214122;28;20455;-79
2023/12/23 03:51:11;;;;;;;11.43;1.30;;;1.50;99.90;;;;;;4214591;28;20442;-79
2023/12/23 03:53:18;;;;;;;6.37;1.03;;;1.50;99.90;;;;;;4211424;28;20467;-79
2023/12/23 03:55:20;;;;;;;9.27;1.13;;;1.50;99.90;;;;;;4216341;28;20459;-79
2023/12/23 03:57:22;;;;;;;5.03;1.00;;;1.50;99.90;;;;;;4212758;28;20471;-78
2023/12/23 03:59:25;;;;;;;10.77;1.57;;;1.50;99.90;;;;;;4214747;28;20455;-80
2023/12/23 04:01:27;;;;;;;6.90;1.00;;;1.50;99.90;;;;;;4216536;28;20450;-79
2023/12/23 04:03:28;;;;;;;9.53;1.07;;;1.50;99.90;;;;;;4214978;28;20492;-79
2023/12/23 04:05:30;;;;;;;11.90;1.03;;;1.50;99.90;;;;;;4220519;28;20461;-81
2023/12/23 04:07:31;;;;;;;11.93;1.20;;;1.50;99.90;;;;;;4219430;28;20805;-79
2023/12/23 04:09:36;;;;;;;4.60;1.00;;;1.50;99.90;;;;;;4223306;28;20446;-78
2023/12/23 04:11:41;;;;;;;7.37;0.90;;;1.50;99.90;;;;;;4214804;28;20523;-81
2023/12/23 04:13:43;;;;;;;11.73;1.20;;;1.50;99.90;;;;;;4220719;28;20445;-79
2023/12/23 04:15:46;;;;;;;13.43;1.53;;;1.50;99.90;;;;;;4215598;28;20971;-78
2023/12/23 04:17:48;;;;;;;4.90;0.90;;;1.50;99.90;;;;;;4214194;28;20450;-80
2023/12/23 04:19:50;;;;;;;9.73;1.00;;;1.50;99.90;;;;;;4219462;28;20491;-80
2023/12/23 04:21:52;;;;;;;6.27;1.10;;;1.60;99.90;;;;;;4220349;28;20488;-78
2023/12/23 04:23:58;;;;;;;9.57;1.43;;;1.60;99.90;;;;;;4214841;28;21007;-78
2023/12/23 04:26:00;;;;;;;9.73;1.20;;;1.60;99.90;;;;;;4217045;28;20486;-79
2023/12/23 04:28:02;;;;;;;7.20;1.40;;;1.60;99.90;;;;;;4216424;28;20894;-80
2023/12/23 04:30:04;;;;;;;14.33;1.70;;;1.60;99.90;;;;;;4213533;28;20927;-79
2023/12/23 04:32:08;;;;;;;6.53;1.10;;;1.60;99.90;;;;;;4218180;28;20470;-79
2023/12/23 04:34:10;;;;;;;9.37;1.47;;;1.60;99.90;;;;;;4211739;28;20868;-78
2023/12/23 04:36:13;;;;;;;12.13;1.13;;;1.60;99.90;;;;;;4213226;28;20467;-78
2023/12/23 04:38:15;;;;;;;18.63;1.47;;;1.60;99.90;;;;;;4210527;28;20532;-80
2023/12/23 04:40:17;;;;;;;13.00;1.53;;;1.60;99.90;;;;;;4214744;28;20447;-79
2023/12/23 04:42:19;;;;;;;14.50;1.57;;;1.60;99.90;;;;;;4218795;28;20530;-78
2023/12/23 04:44:21;;;;;;;6.47;1.10;;;1.70;99.90;;;;;;4217747;28;21174;-80
2023/12/23 04:46:23;;;;;;;6.67;1.30;;;1.60;99.90;;;;;;4207349;28;20998;-78
2023/12/23 04:48:27;;;;;;;5.00;1.00;;;1.60;99.90;;;;;;4219710;28;20471;-79
2023/12/23 04:50:29;;;;;;;7.57;1.53;;;1.60;99.90;;;;;;4216226;28;20451;-78
2023/12/23 04:52:30;;;;;;;5.40;1.00;;;1.70;99.90;;;;;;4217719;28;20522;-75
2023/12/23 04:54:32;;;;;;;15.00;1.60;;;1.60;99.90;;;;;;4215952;28;20500;-76
2023/12/23 04:56:34;;;;;;;5.37;1.10;;;1.70;99.90;;;;;;4218351;28;20800;-77
2023/12/23 04:58:36;;;;;;;5.20;1.23;;;1.60;99.90;;;;;;4214619;28;20446;-76
2023/12/23 05:00:39;;;;;;;7.63;1.37;;;1.70;99.90;;;;;;4215386;28;20434;-78
2023/12/23 05:02:41;;;;;;;8.10;2.00;;;1.70;99.90;;;;;;4215119;28;20459;-74
2023/12/23 05:04:46;;;;;;;10.93;1.37;;;1.70;99.90;;;;;;4214029;28;20874;-80
2023/12/23 05:06:51;;;;;;;10.57;1.20;;;1.70;99.90;;;;;;4218740;28;20506;-76
2023/12/23 05:08:53;;;;;;;9.17;1.33;;;1.70;99.90;;;;;;4215075;28;20448;-77
2023/12/23 05:10:55;;;;;;;9.50;1.60;;;1.70;99.90;;;;;;4217105;28;21012;-79
2023/12/23 05:12:56;;;;;;;7.70;1.00;;;1.70;99.90;;;;;;4214250;28;20982;-77
2023/12/23 05:14:58;;;;;;;11.33;1.50;;;1.70;99.90;;;;;;4218281;28;20439;-79
2023/12/23 05:16:59;;;;;;;7.47;1.40;;;1.70;99.90;;;;;;4214339;28;20205;-76
2023/12/23 05:19:01;;;;;;;9.27;1.00;;;1.70;99.90;;;;;;4224754;28;20439;-81
2023/12/23 05:21:04;;;;;;;6.37;1.00;;;1.70;99.90;;;;;;4197756;28;20452;-77
2023/12/23 05:23:06;;;;;;;7.30;1.10;;;1.70;99.90;;;;;;4215746;28;20982;-77
2023/12/23 05:25:07;;;;;;;8.90;0.90;;;1.70;99.90;;;;;;4214758;28;20454;-75
2023/12/23 05:27:11;;;;;;;9.80;1.37;;;1.70;99.90;;;;;;4215976;28;20466;-76
2023/12/23 05:29:13;;;;;;;12.80;1.10;;;1.70;99.90;;;;;;4214731;28;20867;-76
2023/12/23 05:31:15;;;;;;;6.77;1.30;;;1.60;99.90;;;;;;4213325;28;20455;-77
2023/12/23 05:33:18;;;;;;;6.87;1.47;;;1.70;99.90;;;;;;4212977;28;20500;-76
2023/12/23 05:35:20;;;;;;;6.93;0.93;;;1.70;99.90;;;;;;4212347;28;20447;-85
2023/12/23 05:37:23;;;;;;;10.17;1.00;;;1.70;99.90;;;;;;4215824;28;20942;-78
2023/12/23 05:39:24;;;;;;;5.43;1.10;;;1.90;99.90;;;;;;4219143;28;20492;-81
2023/12/23 05:41:26;;;;;;;10.63;1.17;;;1.80;99.90;;;;;;4216274;28;20500;-79
2023/12/23 05:43:28;;;;;;;9.63;1.20;;;1.80;99.90;;;;;;4215060;28;20216;-79
2023/12/23 05:45:30;;;;;;;9.43;1.20;;;1.80;99.90;;;;;;4214842;28;21134;-77
2023/12/23 05:47:32;;;;;;;12.57;1.47;;;1.80;99.90;;;;;;4217195;28;20525;-77
2023/12/23 05:49:33;;;;;;;5.10;0.90;;;1.90;99.90;;;;;;4215446;28;20451;-78
2023/12/23 05:51:35;;;;;;;7.30;0.90;;;1.90;99.90;;;;;;4217650;28;21007;-77
2023/12/23 05:53:38;;;;;;;5.20;1.20;;;2.00;99.90;;;;;;4217171;28;20736;-76
2023/12/23 05:55:42;;;;;;;8.63;1.00;;;2.00;99.90;;;;;;4215489;28;20447;-77
2023/12/23 05:57:44;;;;;;;8.27;1.40;;;2.10;99.90;;;;;;4215160;28;20463;-76
2023/12/23 05:59:46;;;;;;;12.03;0.90;;;2.10;99.90;;;;;;4213551;28;20817;-76
2023/12/23 06:01:47;;;;;;;9.40;0.97;;;2.20;99.90;;;;;;4209552;28;20531;-76
2023/12/23 06:03:49;;;;;;;10.73;1.20;;;2.20;99.90;;;;;;4217037;28;20911;-77
2023/12/23 06:05:51;;;;;;;8.83;1.00;;;2.20;99.90;;;;;;4211964;28;20294;-77
2023/12/23 06:07:53;;;;;;;15.03;1.77;;;2.30;99.90;;;;;;4215590;28;21288;-78
2023/12/23 06:09:55;;;;;;;9.27;1.13;;;2.20;99.90;;;;;;4217734;28;20488;-77
2023/12/23 06:11:57;;;;;;;5.07;1.00;;;2.30;99.90;;;;;;4214273;28;20525;-77
2023/12/23 06:13:59;;;;;;;12.20;1.30;;;2.20;99.90;;;;;;4220566;28;20530;-78
2023/12/23 06:16:05;;;;;;;5.80;0.90;;;2.30;99.90;;;;;;4216455;28;20504;-77
2023/12/23 06:18:06;;;;;;;9.70;0.90;;;2.50;99.90;;;;;;4215612;28;20846;-78
2023/12/23 06:20:10;;;;;;;14.13;1.67;;;2.30;99.90;;;;;;4211595;28;20431;-75
2023/12/23 06:22:11;;;;;;;11.20;1.37;;;2.30;99.90;;;;;;4215774;28;21530;-74
2023/12/23 06:24:13;;;;;;;11.17;1.90;;;2.40;99.90;;;;;;4214815;28;20878;-73
2023/12/23 06:26:16;;;;;;;9.83;1.77;;;2.40;99.90;;;;;;4211277;28;20467;-73
2023/12/23 06:28:17;;;;;;;18.70;3.10;;;2.40;99.90;;;;;;4210343;28;20496;-74
2023/12/23 06:30:19;;;;;;;11.13;2.10;;;2.40;99.90;;;;;;4211793;28;20443;-73
2023/12/23 06:32:21;;;;;;;10.03;1.83;;;2.40;99.90;;;;;;4221020;28;20236;-74
2023/12/23 06:34:22;;;;;;;8.70;1.70;;;2.40;99.90;;;;;;4215624;28;21161;-75
2023/12/23 06:36:24;;;;;;;12.83;2.30;;;2.30;99.90;;;;;;4214307;28;20435;-75
2023/12/23 06:38:26;;;;;;;8.13;1.63;;;2.30;99.90;;;;;;4213566;28;20493;-74
2023/12/23 06:40:32;;;;;;;14.87;1.70;;;2.30;99.90;;;;;;4214269;28;20505;-75
2023/12/23 06:42:35;;;;;;;9.67;1.63;;;2.30;99.90;;;;;;4217743;28;20543;-75
2023/12/23 06:44:37;;;;;;;11.67;1.67;;;2.30;99.90;;;;;;4214609;28;20438;-73
2023/12/23 06:46:39;;;;;;;8.47;1.70;;;2.30;99.90;;;;;;4211990;28;20857;-74
2023/12/23 06:48:41;;;;;;;10.57;1.70;;;2.30;99.90;;;;;;4209275;28;20444;-73
2023/12/23 06:50:43;;;;;;;5.43;1.40;;;2.30;99.90;;;;;;4214574;28;20444;-75
2023/12/23 06:52:45;;;;;;;13.23;2.30;;;2.30;99.90;;;;;;4212244;28;20471;-74
2023/12/23 06:54:47;;;;;;;9.37;1.50;;;2.20;99.90;;;;;;4216823;28;20445;-73
2023/12/23 06:56:49;;;;;;;15.10;1.90;;;2.20;99.90;;;;;;4211503;28;20451;-74
2023/12/23 06:58:52;;;;;;;9.13;2.07;;;2.30;99.90;;;;;;4212742;28;20451;-74
2023/12/23 07:00:53;;;;;;;6.27;1.30;;;2.20;99.90;;;;;;4210249;28;20512;-75
2023/12/23 07:02:55;;;;;;;4.93;1.40;;;2.20;99.90;;;;;;4210820;28;20466;-74
2023/12/23 07:04:56;;;;;;;8.80;1.53;;;2.20;99.90;;;;;;4212075;28;20722;-75
2023/12/23 07:06:57;;;;;;;7.17;1.30;;;2.20;99.90;;;;;;4215037;28;20474;-74
2023/12/23 07:08:59;;;;;;;8.60;1.30;;;2.20;99.90;;;;;;4211713;28;20208;-75
2023/12/23 07:11:02;;;;;;;12.53;1.97;;;2.10;99.90;;;;;;4216298;28;20447;-74
2023/12/23 07:13:04;;;;;;;3.97;1.10;;;2.20;99.90;;;;;;4214510;28;20471;-77
2023/12/23 07:15:09;;;;;;;6.70;1.17;;;2.20;99.90;;;;;;4217998;28;20443;-75
2023/12/23 07:17:11;;;;;;;19.60;2.77;;;2.10;99.90;;;;;;4211482;28;20443;-76
2023/12/23 07:19:14;;;;;;;4.33;1.70;;;2.10;99.90;;;;;;4216156;28;20442;-76
2023/12/23 07:21:16;;;;;;;7.20;1.93;;;2.10;99.90;;;;;;4209237;28;20462;-74
2023/12/23 07:23:18;;;;;;;7.70;2.00;;;2.10;99.90;;;;;;4217492;28;20966;-75
2023/12/23 07:25:20;;;;;;;7.73;2.33;;;2.10;99.90;;;;;;4215882;28;20496;-74
2023/12/23 07:27:21;;;;;;;11.17;2.47;;;2.10;99.90;;;;;;4209268;28;20482;-75
2023/12/23 07:29:23;;;;;;;12.67;2.10;;;2.10;99.90;;;;;;4211128;28;20461;-75
2023/12/23 07:31:26;;;;;;;11.70;1.83;;;2.20;99.90;;;;;;4208573;28;20815;-77
2023/12/23 07:33:28;;;;;;;6.43;1.50;;;2.10;99.90;;;;;;4211502;28;20995;-75
2023/12/23 07:35:29;;;;;;;7.37;1.37;;;2.10;99.90;;;;;;4211122;28;20443;-75
2023/12/23 07:37:31;;;;;;;8.77;1.27;;;2.20;99.90;;;;;;4210776;28;20472;-76
2023/12/23 07:39:32;;;;;;;8.80;1.20;;;2.20;99.90;;;;;;4213761;28;20850;-75
2023/12/23 07:41:34;;;;;;;7.97;1.10;;;2.10;99.90;;;;;;4211017;28;20463;-76
2023/12/23 07:43:37;;;;;;;6.53;1.23;;;2.20;99.90;;;;;;4210074;28;20456;-75
2023/12/23 07:45:42;;;;;;;7.73;1.97;;;2.10;99.90;;;;;;4210138;28;20443;-75
2023/12/23 07:47:46;;;;;;;5.43;1.20;;;2.20;99.90;;;;;;4211477;28;21061;-74
2023/12/23 07:49:47;;;;;;;4.93;1.40;;;2.20;99.90;;;;;;4210073;28;20530;-74
2023/12/23 07:51:49;;;;;;;7.43;1.47;;;2.20;99.90;;;;;;4211776;28;20495;-76
2023/12/23 07:53:51;;;;;;;4.50;1.20;;;2.10;99.90;;;;;;4212262;28;20947;-75
2023/12/23 07:55:52;;;;;;;7.03;1.90;;;2.20;99.90;;;;;;4211395;28;20538;-75
2023/12/23 07:57:54;;;;;;;10.57;2.50;;;2.20;99.90;;;;;;4210651;28;20447;-75
2023/12/23 07:59:55;;;;;;;5.20;2.67;;;2.20;99.90;;;;;;4210393;28;20452;-76
2023/12/23 08:01:57;;;;;;;7.90;2.30;;;2.20;99.90;;;;;;4213763;28;20524;-76
2023/12/23 08:03:59;;;;;;;10.07;3.13;;;2.20;99.90;;;;;;4211124;28;20217;-77
2023/12/23 08:06:01;;;;;;;8.77;3.93;;;2.20;99.90;;;;;;4214529;28;20450;-76
2023/12/23 08:08:03;;;;;;;8.37;3.40;;;2.20;99.90;;;;;;4213435;28;20478;-77
2023/12/23 08:10:07;;;;;;;7.30;3.33;;;2.20;99.90;;;;;;4213109;28;20453;-76
2023/12/23 08:12:09;;;;;;;7.73;3.57;;;2.20;99.90;;;;;;4216460;28;21170;-76
2023/12/23 08:14:11;;;;;;;5.90;3.63;;;2.20;99.90;;;;;;4221585;28;20949;-76
2023/12/23 08:16:13;;;;;;;10.87;3.83;;;2.30;99.90;;;;;;4216728;28;20439;-76
2023/12/23 08:18:16;;;;;;;7.57;3.90;;;2.30;99.90;;;;;;4215204;28;20494;-76
2023/12/23 08:20:19;;;;;;;7.60;3.60;;;2.30;99.90;;;;;;4196543;28;20513;-76
2023/12/23 08:22:21;;;;;;;11.37;4.37;;;2.30;99.90;;;;;;4218014;28;20635;-76
2023/12/23 08:24:23;;;;;;;11.17;5.30;;;2.30;99.90;;;;;;4221352;28;20496;-76
2023/12/23 08:26:25;;;;;;;10.47;3.90;;;2.30;99.90;;;;;;4213331;28;20439;-76
2023/12/23 08:28:27;;;;;;;7.37;3.20;;;2.30;99.90;;;;;;4213790;28;20481;-76
2023/12/23 08:30:29;;;;;;;11.10;4.53;;;2.40;99.90;;;;;;4212945;28;20786;-76
2023/12/23 08:32:30;;;;;;;7.40;2.90;;;2.40;99.90;;;;;;4214202;28;20467;-75
2023/12/23 08:34:32;;;;;;;7.90;2.70;;;2.40;99.90;;;;;;4217952;28;20447;-75
2023/12/23 08:36:34;;;;;;;13.80;2.80;;;2.40;99.90;;;;;;4216299;28;20209;-76
2023/12/23 08:38:36;;;;;;;7.63;3.13;;;2.50;99.90;;;;;;4214221;28;20473;-76
2023/12/23 08:40:38;;;;;;;9.10;4.20;;;2.50;99.90;;;;;;4214726;28;21150;-76
2023/12/23 08:42:40;;;;;;;9.37;4.23;;;2.50;99.90;;;;;;4210722;28;20467;-76
2023/12/23 08:44:42;;;;;;;10.47;3.60;;;2.60;99.90;;;;;;4215319;28;20565;-76
2023/12/23 08:46:43;;;;;;;6.83;2.97;;;2.60;99.90;;;;;;4214435;28;20471;-76
2023/12/23 08:48:50;;;;;;;3.67;1.90;;;2.60;99.90;;;;;;4216975;28;20854;-76
2023/12/23 08:50:52;;;;;;;4.47;1.50;;;2.60;99.90;;;;;;4211100;28;20734;-76
2023/12/23 08:52:54;;;;;;;5.50;2.13;;;2.70;99.90;;;;;;4212292;28;20811;-76
2023/12/23 08:54:56;;;;;;;4.20;2.10;;;2.70;99.90;;;;;;4214684;28;20806;-76
2023/12/23 08:56:58;;;;;;;3.73;1.40;;;2.70;99.90;;;;;;4214982;28;20855;-76
2023/12/23 08:59:00;;;;;;;2.67;1.30;;;2.70;99.90;;;;;;4216389;28;20458;-77
2023/12/23 09:01:02;;;;;;;4.07;1.50;;;2.70;99.90;;;;;;4218453;28;20503;-75
2023/12/23 09:03:06;;;;;;;3.33;2.20;;;2.70;99.90;;;;;;4218085;28;20483;-76
2023/12/23 09:05:08;;;;;;;4.03;1.80;;;2.80;99.90;;;;;;4216879;28;20443;-76
2023/12/23 09:07:10;;;;;;;4.27;1.53;;;2.80;99.90;;;;;;4214038;28;21005;-75
2023/12/23 09:09:14;;;;;;;4.67;1.80;;;2.80;99.90;;;;;;4212564;28;20455;-76
2023/12/23 09:11:15;;;;;;;2.50;1.43;;;2.80;99.90;;;;;;4214117;28;20805;-77
2023/12/23 09:13:17;;;;;;;2.60;1.40;;;2.80;99.90;;;;;;4215419;28;20485;-77
2023/12/23 09:15:19;;;;;;;5.23;1.60;;;2.80;99.90;;;;;;4219792;28;20443;-78
2023/12/23 09:17:21;;;;;;;1.83;1.10;;;2.80;99.90;;;;;;4212240;28;20895;-75
2023/12/23 09:19:23;;;;;;;1.20;0.90;;;2.90;99.90;;;;;;4222399;28;20442;-75
2023/12/23 09:21:25;;;;;;;3.00;1.20;;;2.90;99.90;;;;;;4213856;28;20270;-77
2023/12/23 09:23:26;;;;;;;3.13;1.13;;;2.90;99.90;;;;;;4211326;28;20479;-75
2023/12/23 09:25:29;;;;;;;3.13;1.63;;;2.90;99.90;;;;;;4218849;28;20498;-75
2023/12/23 09:27:31;;;;;;;3.33;1.30;;;2.90;99.90;;;;;;4212325;28;20492;-75
2023/12/23 09:29:33;;;;;;;5.37;1.57;;;2.90;99.90;;;;;;4212338;28;20447;-76
2023/12/23 09:31:35;;;;;;;4.07;1.37;;;2.90;99.90;;;;;;4212947;28;20463;-76
2023/12/23 09:33:38;;;;;;;7.07;1.73;;;2.90;99.90;;;;;;4212807;28;20523;-77
2023/12/23 09:35:40;;;;;;;1.60;0.93;;;2.90;99.90;;;;;;4214255;28;20450;-78
2023/12/23 09:37:44;;;;;;;2.43;1.20;;;2.90;99.90;;;;;;4213124;28;20436;-77
2023/12/23 09:39:46;;;;;;;5.03;0.87;;;2.90;99.90;;;;;;4213403;28;20472;-76
2023/12/23 09:41:50;;;;;;;2.93;0.60;;;2.90;99.90;;;;;;4216404;28;20543;-77
2023/12/23 09:43:53;;;;;;;0.90;0.60;;;2.90;99.90;;;;;;4214959;28;20467;-78
2023/12/23 09:45:58;;;;;;;0.83;0.60;;;2.90;99.90;;;;;;4214475;28;20496;-77
2023/12/23 09:48:00;;;;;;;1.13;0.70;;;2.90;99.90;;;;;;4218522;28;20897;-77
2023/12/23 09:50:02;;;;;;;1.27;0.60;;;2.90;99.90;;;;;;4219568;28;20448;-77
2023/12/23 09:52:04;;;;;;;1.23;0.50;;;2.90;99.90;;;;;;4222315;28;20490;-74
2023/12/23 09:54:07;;;;;;;1.33;0.50;;;2.90;99.90;;;;;;4226220;28;20435;-78
2023/12/23 09:56:09;;;;;;;1.23;0.50;;;2.90;99.90;;;;;;4220060;28;20794;-77
2023/12/23 09:58:14;;;;;;;0.67;0.50;;;2.90;99.90;;;;;;4216595;28;20480;-78
2023/12/23 10:00:19;;;;;;;1.73;0.80;;;2.90;99.90;;;;;;4213587;28;20473;-78
2023/12/23 10:02:20;;;;;;;2.07;0.70;;;2.90;99.90;;;;;;4215166;28;20463;-78
2023/12/23 10:04:22;;;;;;;0.93;0.60;;;2.90;99.90;;;;;;4216084;28;20501;-79
2023/12/23 10:06:25;;;;;;;1.03;0.40;;;2.90;99.90;;;;;;4214126;28;20262;-78
2023/12/23 10:08:29;;;;;;;1.93;0.80;;;3.10;99.90;;;;;;4211503;28;21085;-78
2023/12/23 10:10:33;;;;;;;21.63;6.13;;;2.90;99.90;;;;;;4215739;28;20451;-78
2023/12/23 10:12:35;;;;;;;14.57;5.53;;;2.90;99.90;;;;;;4214359;28;20554;-76
2023/12/23 10:14:41;;;;;;;8.60;2.93;;;2.90;99.90;;;;;;4211631;28;20447;-76
2023/12/23 10:16:43;;;;;;;2.73;1.23;;;2.90;99.90;;;;;;4209920;28;20440;-77
2023/12/23 10:18:47;;;;;;;1.13;0.70;;;2.90;99.90;;;;;;4213881;28;20458;-77
2023/12/23 10:20:48;;;;;;;0.80;0.60;;;2.90;99.90;;;;;;4206112;28;21123;-78
2023/12/23 10:22:50;;;;;;;0.60;0.50;;;2.90;99.90;;;;;;4217069;28;20474;-77
2023/12/23 10:24:52;;;;;;;0.47;0.47;;;2.90;99.90;;;;;;4213507;28;20440;-77
2023/12/23 10:26:56;;;;;;;0.20;0.20;;;2.90;99.90;;;;;;4217449;28;20455;-78
2023/12/23 10:29:03;;;;;;;1.33;0.40;;;2.90;99.90;;;;;;4212654;28;20536;-78
2023/12/23 10:31:07;;;;;;;0.67;0.30;;;2.90;99.90;;;;;;4210296;28;20431;-79
2023/12/23 10:33:12;;;;;;;0.40;0.30;;;2.90;99.90;;;;;;4214247;28;20459;-78
2023/12/23 10:35:16;;;;;;;0.33;0.30;;;2.80;99.90;;;;;;4212485;28;20998;-79
2023/12/23 10:37:18;;;;;;;2.00;0.40;;;2.80;99.90;;;;;;4211777;28;20505;-79
2023/12/23 10:39:25;;;;;;;0.90;0.60;;;2.80;99.90;;;;;;4219539;28;20456;-79
2023/12/23 10:41:37;;;;;;;2.30;0.50;;;2.80;99.90;;;;;;4216419;28;20439;-79
2023/12/23 10:43:40;;;;;;;0.97;0.30;;;2.80;99.90;;;;;;4213762;28;20492;-80